sensor_id;sensor_type;location;lat;lon;timestamp;pressure;altitude;pressure_sealevel;temperature;humidity
57801;BME280;43627;42.728;23.256;2023-12-07T00:00:43;94633.19;;;4.83;100.00
57801;BME280;43627;42.728;23.256;2023-12-07T00:03:10;94632.41;;;4.83;100.00
57801;BME280;43627;42.728;23.256;2023-12-07T00:05:37;94633.72;;;4.66;100.00
57801;BME280;43627;42.728;23.256;2023-12-07T00:08:04;94630.91;;;4.69;100.00
57801;BME280;43627;42.728;23.256;2023-12-07T00:10:30;94630.56;;;4.54;100.00
57801;BME280;43627;42.728;23.256;2023-12-07T00:12:57;94633.50;;;4.60;100.00
57801;BME280;43627;42.728;23.256;2023-12-07T00:15:24;94629.41;;;4.68;100.00
57801;BME280;43627;42.728;23.256;2023-12-07T00:17:51;94643.09;;;4.61;100.00
57801;BME280;43627;42.728;23.256;2023-12-07T00:20:18;94632.31;;;4.48;100.00
57801;BME280;43627;42.728;23.256;2023-12-07T00:22:44;94636.84;;;4.51;100.00
57801;BME280;43627;42.728;23.256;2023-12-07T00:25:12;94630.56;;;4.54;100.00
57801;BME280;43627;42.728;23.256;2023-12-07T00:27:38;94634.38;;;4.57;100.00
57801;BME280;43627;42.728;23.256;2023-12-07T00:30:05;94640.84;;;4.59;100.00
57801;BME280;43627;42.728;23.256;2023-12-07T00:32:32;94643.09;;;4.61;100.00
57801;BME280;43627;42.728;23.256;2023-12-07T00:34:59;94643.09;;;4.61;100.00
57801;BME280;43627;42.728;23.256;2023-12-07T00:37:26;94642.25;;;4.64;100.00
57801;BME280;43627;42.728;23.256;2023-12-07T00:39:53;94644.72;;;4.58;100.00
57801;BME280;43627;42.728;23.256;2023-12-07T00:42:20;94638.66;;;4.54;100.00
57801;BME280;43627;42.728;23.256;2023-12-07T00:44:47;94640.41;;;4.61;100.00
57801;BME280;43627;42.728;23.256;2023-12-07T00:47:15;94638.38;;;4.65;100.00
57801;BME280;43627;42.728;23.256;2023-12-07T00:49:42;94636.44;;;4.66;100.00
57801;BME280;43627;42.728;23.256;2023-12-07T00:52:09;94633.50;;;4.60;100.00
57801;BME280;43627;42.728;23.256;2023-12-07T00:54:36;94629.28;;;4.72;100.00
57801;BME280;43627;42.728;23.256;2023-12-07T00:57:03;94626.47;;;4.88;100.00
57801;BME280;43627;42.728;23.256;2023-12-07T00:59:29;94625.09;;;4.83;100.00
57801;BME280;43627;42.728;23.256;2023-12-07T01:02:00;94627.00;;;4.83;100.00
57801;BME280;43627;42.728;23.256;2023-12-07T01:04:28;94616.56;;;4.85;100.00
57801;BME280;43627;42.728;23.256;2023-12-07T01:06:55;94604.22;;;4.71;100.00
57801;BME280;43627;42.728;23.256;2023-12-07T01:09:22;94628.13;;;4.85;100.00
57801;BME280;43627;42.728;23.256;2023-12-07T01:11:49;94631.34;;;4.80;100.00
57801;BME280;43627;42.728;23.256;2023-12-07T01:14:16;94632.66;;;4.76;100.00
57801;BME280;43627;42.728;23.256;2023-12-07T01:16:44;94627.56;;;4.65;100.00
57801;BME280;43627;42.728;23.256;2023-12-07T01:19:11;94626.47;;;4.63;100.00
57801;BME280;43627;42.728;23.256;2023-12-07T01:21:43;94624.13;;;4.65;100.00
57801;BME280;43627;42.728;23.256;2023-12-07T01:24:10;94631.78;;;4.66;100.00
57801;BME280;43627;42.728;23.256;2023-12-07T01:26:42;94631.34;;;4.68;100.00
57801;BME280;43627;42.728;23.256;2023-12-07T01:29:09;94633.63;;;4.69;100.00
57801;BME280;43627;42.728;23.256;2023-12-07T01:31:35;94628.41;;;4.62;100.00
57801;BME280;43627;42.728;23.256;2023-12-07T01:34:02;94618.25;;;4.53;100.00
57801;BME280;43627;42.728;23.256;2023-12-07T01:36:29;94630.78;;;4.47;100.00
57801;BME280;43627;42.728;23.256;2023-12-07T01:38:56;94628.09;;;4.47;100.00
57801;BME280;43627;42.728;23.256;2023-12-07T01:41:22;94628.41;;;4.49;100.00
57801;BME280;43627;42.728;23.256;2023-12-07T01:43:49;94627.47;;;4.56;100.00
57801;BME280;43627;42.728;23.256;2023-12-07T01:46:16;94616.53;;;4.59;100.00
57801;BME280;43627;42.728;23.256;2023-12-07T01:48:43;94614.38;;;4.54;100.00
57801;BME280;43627;42.728;23.256;2023-12-07T01:51:10;94610.91;;;4.54;100.00
57801;BME280;43627;42.728;23.256;2023-12-07T01:53:38;94612.66;;;4.61;100.00
57801;BME280;43627;42.728;23.256;2023-12-07T01:56:05;94599.69;;;4.81;100.00
57801;BME280;43627;42.728;23.256;2023-12-07T01:58:33;94608.00;;;4.86;100.00
57801;BME280;43627;42.728;23.256;2023-12-07T02:01:00;94603.91;;;4.95;100.00
57801;BME280;43627;42.728;23.256;2023-12-07T02:03:27;94604.00;;;4.91;100.00
57801;BME280;43627;42.728;23.256;2023-12-07T02:05:56;94599.34;;;4.92;100.00
57801;BME280;43627;42.728;23.256;2023-12-07T02:08:24;94602.81;;;4.92;100.00
57801;BME280;43627;42.728;23.256;2023-12-07T02:10:51;94598.41;;;4.85;100.00
57801;BME280;43627;42.728;23.256;2023-12-07T02:13:20;94604.88;;;4.88;100.00
57801;BME280;43627;42.728;23.256;2023-12-07T02:15:47;94604.88;;;4.88;100.00
57801;BME280;43627;42.728;23.256;2023-12-07T02:18:15;94609.31;;;4.95;100.00
57801;BME280;43627;42.728;23.256;2023-12-07T02:23:21;94604.88;;;4.88;100.00
57801;BME280;43627;42.728;23.256;2023-12-07T02:26:22;94608.97;;;4.93;100.00
57801;BME280;43627;42.728;23.256;2023-12-07T02:28:51;94609.63;;;4.84;100.00
57801;BME280;43627;42.728;23.256;2023-12-07T02:31:18;94612.34;;;4.84;100.00
57801;BME280;43627;42.728;23.256;2023-12-07T02:49:06;94597.09;;;4.52;100.00
57801;BME280;43627;42.728;23.256;2023-12-07T02:51:33;94599.34;;;4.53;100.00
57801;BME280;43627;42.728;23.256;2023-12-07T02:53:59;94597.97;;;4.36;100.00
57801;BME280;43627;42.728;23.256;2023-12-07T02:56:26;94607.75;;;4.30;100.00
57801;BME280;43627;42.728;23.256;2023-12-07T02:58:53;94603.56;;;4.29;100.00
57801;BME280;43627;42.728;23.256;2023-12-07T03:01:20;94607.97;;;4.36;100.00
57801;BME280;43627;42.728;23.256;2023-12-07T03:03:46;94597.47;;;4.25;100.00
57801;BME280;43627;42.728;23.256;2023-12-07T03:06:13;94610.56;;;4.26;100.00
57801;BME280;43627;42.728;23.256;2023-12-07T03:08:42;94604.38;;;4.26;100.00
57801;BME280;43627;42.728;23.256;2023-12-07T03:11:08;94603.75;;;4.22;100.00
57801;BME280;43627;42.728;23.256;2023-12-07T03:13:35;94607.19;;;4.22;100.00
57801;BME280;43627;42.728;23.256;2023-12-07T03:16:06;94617.13;;;4.25;100.00
57801;BME280;43627;42.728;23.256;2023-12-07T03:18:33;94608.28;;;4.25;100.00
57801;BME280;43627;42.728;23.256;2023-12-07T03:21:01;94605.50;;;4.28;100.00
57801;BME280;43627;42.728;23.256;2023-12-07T03:23:28;94603.56;;;4.29;100.00
57801;BME280;43627;42.728;23.256;2023-12-07T03:25:54;94612.72;;;4.32;100.00
57801;BME280;43627;42.728;23.256;2023-12-07T03:28:22;94601.94;;;4.32;100.00
57801;BME280;43627;42.728;23.256;2023-12-07T03:30:48;94610.78;;;4.32;100.00
57801;BME280;43627;42.728;23.256;2023-12-07T03:33:15;94616.94;;;4.33;100.00
57801;BME280;43627;42.728;23.256;2023-12-07T03:35:42;94618.75;;;4.36;100.00
57801;BME280;43627;42.728;23.256;2023-12-07T03:38:09;94622.13;;;4.40;100.00
57801;BME280;43627;42.728;23.256;2023-12-07T03:40:35;94620.84;;;4.44;100.00
57801;BME280;43627;42.728;23.256;2023-12-07T03:43:02;94623.41;;;4.35;100.00
57801;BME280;43627;42.728;23.256;2023-12-07T03:45:31;94619.25;;;4.47;100.00
57801;BME280;43627;42.728;23.256;2023-12-07T03:47:58;94628.72;;;4.51;100.00
57801;BME280;43627;42.728;23.256;2023-12-07T03:50:25;94624.44;;;4.67;100.00
57801;BME280;43627;42.728;23.256;2023-12-07T03:52:52;94622.59;;;4.76;100.00
57801;BME280;43627;42.728;23.256;2023-12-07T03:55:18;94614.06;;;4.78;100.00
57801;BME280;43627;42.728;23.256;2023-12-07T03:57:45;94616.88;;;4.74;100.00
57801;BME280;43627;42.728;23.256;2023-12-07T04:00:12;94612.22;;;4.62;100.00
57801;BME280;43627;42.728;23.256;2023-12-07T04:02:39;94617.84;;;4.55;100.00
57801;BME280;43627;42.728;23.256;2023-12-07T04:05:06;94614.59;;;4.73;100.00
57801;BME280;43627;42.728;23.256;2023-12-07T04:07:33;94618.03;;;4.73;100.00
57801;BME280;43627;42.728;23.256;2023-12-07T04:10:00;94618.59;;;4.68;100.00
57801;BME280;43627;42.728;23.256;2023-12-07T04:12:27;94628.44;;;4.75;100.00
57801;BME280;43627;42.728;23.256;2023-12-07T04:14:54;94616.75;;;4.78;100.00
57801;BME280;43627;42.728;23.256;2023-12-07T04:17:21;94620.97;;;4.79;100.00
57801;BME280;43627;42.728;23.256;2023-12-07T04:19:47;94632.22;;;4.65;100.00
57801;BME280;43627;42.728;23.256;2023-12-07T04:22:14;94631.03;;;4.66;100.00
57801;BME280;43627;42.728;23.256;2023-12-07T04:24:41;94631.78;;;4.66;100.00
57801;BME280;43627;42.728;23.256;2023-12-07T04:27:08;94630.59;;;4.67;100.00
57801;BME280;43627;42.728;23.256;2023-12-07T04:29:34;94646.88;;;4.64;100.00
57801;BME280;43627;42.728;23.256;2023-12-07T04:32:02;94644.41;;;4.56;100.00
57801;BME280;43627;42.728;23.256;2023-12-07T04:34:29;94641.03;;;4.52;100.00
57801;BME280;43627;42.728;23.256;2023-12-07T04:36:55;94650.66;;;4.53;100.00
57801;BME280;43627;42.728;23.256;2023-12-07T04:39:22;94643.19;;;4.45;100.00
57801;BME280;43627;42.728;23.256;2023-12-07T04:41:49;94649.78;;;4.44;100.00
57801;BME280;43627;42.728;23.256;2023-12-07T04:44:16;94648.59;;;4.45;100.00
57801;BME280;43627;42.728;23.256;2023-12-07T04:46:42;94645.75;;;4.36;100.00
57801;BME280;43627;42.728;23.256;2023-12-07T04:49:09;94654.91;;;4.25;100.00
57801;BME280;43627;42.728;23.256;2023-12-07T04:51:36;94660.78;;;4.37;100.00
57801;BME280;43627;42.728;23.256;2023-12-07T04:54:03;94654.22;;;4.38;100.00
57801;BME280;43627;42.728;23.256;2023-12-07T04:56:41;94655.47;;;4.33;100.00
57801;BME280;43627;42.728;23.256;2023-12-07T04:59:09;94658.38;;;4.26;100.00
57801;BME280;43627;42.728;23.256;2023-12-07T05:01:36;94658.94;;;4.34;100.00
57801;BME280;43627;42.728;23.256;2023-12-07T05:04:03;94655.03;;;4.22;100.00
57801;BME280;43627;42.728;23.256;2023-12-07T05:06:33;94653.41;;;4.24;100.00
57801;BME280;43627;42.728;23.256;2023-12-07T05:09:00;94663.56;;;4.33;100.00
57801;BME280;43627;42.728;23.256;2023-12-07T05:11:27;94637.34;;;4.34;100.00
57801;BME280;43627;42.728;23.256;2023-12-07T05:13:53;94665.97;;;4.44;100.00
57801;BME280;43627;42.728;23.256;2023-12-07T05:16:20;94657.88;;;4.44;100.00
57801;BME280;43627;42.728;23.256;2023-12-07T05:18:47;94663.06;;;4.38;100.00
57801;BME280;43627;42.728;23.256;2023-12-07T05:21:13;94662.72;;;4.36;100.00
57801;BME280;43627;42.728;23.256;2023-12-07T05:23:40;94663.13;;;4.22;100.00
57801;BME280;43627;42.728;23.256;2023-12-07T05:26:07;94657.84;;;4.31;100.00
57801;BME280;43627;42.728;23.256;2023-12-07T05:28:35;94667.47;;;4.32;100.00
57801;BME280;43627;42.728;23.256;2023-12-07T05:31:02;94672.75;;;4.36;100.00
57801;BME280;43627;42.728;23.256;2023-12-07T05:33:29;94679.25;;;4.38;100.00
57801;BME280;43627;42.728;23.256;2023-12-07T05:35:56;94680.22;;;4.44;100.00
57801;BME280;43627;42.728;23.256;2023-12-07T05:38:22;94677.00;;;4.49;100.00
57801;BME280;43627;42.728;23.256;2023-12-07T05:40:49;94677.00;;;4.49;100.00
57801;BME280;43627;42.728;23.256;2023-12-07T05:43:16;94680.03;;;4.51;100.00
57801;BME280;43627;42.728;23.256;2023-12-07T05:45:45;94681.97;;;4.51;100.00
57801;BME280;43627;42.728;23.256;2023-12-07T05:48:12;94664.00;;;4.32;100.00
57801;BME280;43627;42.728;23.256;2023-12-07T05:50:39;94687.91;;;4.46;100.00
57801;BME280;43627;42.728;23.256;2023-12-07T05:53:06;94677.00;;;4.49;100.00
57801;BME280;43627;42.728;23.256;2023-12-07T05:55:33;94686.63;;;4.50;100.00
57801;BME280;43627;42.728;23.256;2023-12-07T05:58:00;94691.03;;;4.44;100.00
57801;BME280;43627;42.728;23.256;2023-12-07T06:00:26;94689.00;;;4.48;100.00
57801;BME280;43627;42.728;23.256;2023-12-07T06:02:53;94686.94;;;4.52;100.00
57801;BME280;43627;42.728;23.256;2023-12-07T06:05:20;94691.59;;;4.52;100.00
57801;BME280;43627;42.728;23.256;2023-12-07T06:07:47;94694.19;;;4.55;100.00
57801;BME280;43627;42.728;23.256;2023-12-07T06:10:14;94703.25;;;4.49;100.00
57801;BME280;43627;42.728;23.256;2023-12-07T06:12:41;94702.38;;;4.52;100.00
57801;BME280;43627;42.728;23.256;2023-12-07T06:15:08;94703.28;;;4.62;100.00
57801;BME280;43627;42.728;23.256;2023-12-07T06:17:34;94700.56;;;4.62;100.00
57801;BME280;43627;42.728;23.256;2023-12-07T06:20:01;94698.44;;;4.69;100.00
57801;BME280;43627;42.728;23.256;2023-12-07T06:22:29;94699.63;;;4.68;100.00
57801;BME280;43627;42.728;23.256;2023-12-07T06:24:56;94697.03;;;4.77;100.00
57801;BME280;43627;42.728;23.256;2023-12-07T06:27:23;94700.81;;;4.93;100.00
57801;BME280;43627;42.728;23.256;2023-12-07T06:29:50;94711.75;;;5.02;100.00
57801;BME280;43627;42.728;23.256;2023-12-07T06:32:17;94706.69;;;5.04;100.00
57801;BME280;43627;42.728;23.256;2023-12-07T06:34:44;94711.63;;;4.93;100.00
57801;BME280;43627;42.728;23.256;2023-12-07T06:37:11;94713.59;;;5.05;100.00
57801;BME280;43627;42.728;23.256;2023-12-07T06:39:38;94721.38;;;5.15;100.00
57801;BME280;43627;42.728;23.256;2023-12-07T06:42:05;94711.56;;;5.22;100.00
57801;BME280;43627;42.728;23.256;2023-12-07T06:44:31;94720.50;;;5.19;100.00
57801;BME280;43627;42.728;23.256;2023-12-07T06:46:58;94728.81;;;5.11;100.00
57801;BME280;43627;42.728;23.256;2023-12-07T06:49:25;94723.75;;;5.01;100.00
57801;BME280;43627;42.728;23.256;2023-12-07T06:52:08;94729.50;;;5.15;100.00
57801;BME280;43627;42.728;23.256;2023-12-07T06:54:35;94730.03;;;5.10;100.00
57801;BME280;43627;42.728;23.256;2023-12-07T06:57:02;94735.97;;;5.05;100.00
57801;BME280;43627;42.728;23.256;2023-12-07T06:59:29;94731.22;;;5.09;100.00
57801;BME280;43627;42.728;23.256;2023-12-07T07:01:55;94730.88;;;5.07;100.00
57801;BME280;43627;42.728;23.256;2023-12-07T07:04:22;94726.25;;;5.08;100.00
57801;BME280;43627;42.728;23.256;2023-12-07T07:06:49;94720.84;;;5.08;100.00
57801;BME280;43627;42.728;23.256;2023-12-07T07:09:15;94733.06;;;5.12;100.00
57801;BME280;43627;42.728;23.256;2023-12-07T07:11:46;94733.91;;;5.09;100.00
57801;BME280;43627;42.728;23.256;2023-12-07T07:14:14;94738.69;;;5.05;100.00
57801;BME280;43627;42.728;23.256;2023-12-07T07:16:40;94735.09;;;4.96;100.00
57801;BME280;43627;42.728;23.256;2023-12-07T07:19:07;94738.44;;;4.87;100.00
57801;BME280;43627;42.728;23.256;2023-12-07T07:21:34;94745.53;;;4.81;100.00
57801;BME280;43627;42.728;23.256;2023-12-07T07:24:01;94744.16;;;4.76;100.00
57801;BME280;43627;42.728;23.256;2023-12-07T07:26:32;94746.16;;;4.72;100.00
57801;BME280;43627;42.728;23.256;2023-12-07T07:28:59;94743.63;;;4.52;100.00
57801;BME280;43627;42.728;23.256;2023-12-07T07:31:26;94754.50;;;4.36;100.00
57801;BME280;43627;42.728;23.256;2023-12-07T07:33:52;94759.94;;;4.20;100.00
57801;BME280;43627;42.728;23.256;2023-12-07T07:36:26;94743.19;;;3.96;100.00
57801;BME280;43627;42.728;23.256;2023-12-07T07:38:53;94762.34;;;3.85;100.00
57801;BME280;43627;42.728;23.256;2023-12-07T07:41:20;94756.38;;;3.61;100.00
57801;BME280;43627;42.728;23.256;2023-12-07T07:43:46;94763.72;;;3.61;100.00
57801;BME280;43627;42.728;23.256;2023-12-07T07:46:14;94746.00;;;3.60;100.00
57801;BME280;43627;42.728;23.256;2023-12-07T07:48:40;94756.78;;;3.60;100.00
57801;BME280;43627;42.728;23.256;2023-12-07T07:51:07;94764.03;;;3.63;100.00
57801;BME280;43627;42.728;23.256;2023-12-07T07:53:34;94760.66;;;3.59;100.00
57801;BME280;43627;42.728;23.256;2023-12-07T07:56:00;94760.47;;;3.50;100.00
57801;BME280;43627;42.728;23.256;2023-12-07T07:58:27;94769.31;;;3.50;100.00
57801;BME280;43627;42.728;23.256;2023-12-07T08:00:53;94777.19;;;3.61;100.00
57801;BME280;43627;42.728;23.256;2023-12-07T08:03:20;94773.06;;;3.56;100.00
57801;BME280;43627;42.728;23.256;2023-12-07T08:05:47;94759.50;;;3.43;100.00
57801;BME280;43627;42.728;23.256;2023-12-07T08:08:14;94775.66;;;3.43;100.00
57801;BME280;43627;42.728;23.256;2023-12-07T08:10:40;94780.53;;;3.49;100.00
57801;BME280;43627;42.728;23.256;2023-12-07T08:13:21;94776.47;;;3.24;100.00
57801;BME280;43627;42.728;23.256;2023-12-07T08:15:48;94772.09;;;3.30;100.00
57801;BME280;43627;42.728;23.256;2023-12-07T08:18:15;94788.81;;;3.22;100.00
57801;BME280;43627;42.728;23.256;2023-12-07T08:20:42;94784.94;;;3.06;100.00
57801;BME280;43627;42.728;23.256;2023-12-07T08:23:09;94794.06;;;2.93;100.00
57801;BME280;43627;42.728;23.256;2023-12-07T08:25:38;94798.78;;;2.89;100.00
57801;BME280;43627;42.728;23.256;2023-12-07T08:28:05;94789.78;;;2.95;100.00
57801;BME280;43627;42.728;23.256;2023-12-07T08:30:31;94781.63;;;2.99;100.00
57801;BME280;43627;42.728;23.256;2023-12-07T08:32:58;94794.19;;;3.05;100.00
57801;BME280;43627;42.728;23.256;2023-12-07T08:35:25;94795.09;;;2.99;100.00
57801;BME280;43627;42.728;23.256;2023-12-07T08:37:52;94801.94;;;2.83;100.00
57801;BME280;43627;42.728;23.256;2023-12-07T08:40:19;94788.13;;;2.81;100.00
57801;BME280;43627;42.728;23.256;2023-12-07T08:42:46;94808.66;;;2.95;100.00
57801;BME280;43627;42.728;23.256;2023-12-07T08:45:16;94801.47;;;2.89;100.00
57801;BME280;43627;42.728;23.256;2023-12-07T08:47:43;94805.66;;;2.90;100.00
57801;BME280;43627;42.728;23.256;2023-12-07T08:50:10;94805.25;;;2.91;100.00
57801;BME280;43627;42.728;23.256;2023-12-07T08:52:37;94812.72;;;2.83;100.00
57801;BME280;43627;42.728;23.256;2023-12-07T08:55:13;94812.03;;;2.79;100.00
57801;BME280;43627;42.728;23.256;2023-12-07T08:57:42;94808.69;;;2.92;100.00
57801;BME280;43627;42.728;23.256;2023-12-07T09:00:09;94813.69;;;2.73;100.00
57801;BME280;43627;42.728;23.256;2023-12-07T09:02:36;94804.41;;;2.74;100.00
57801;BME280;43627;42.728;23.256;2023-12-07T09:05:13;94810.50;;;2.78;100.00
57801;BME280;43627;42.728;23.256;2023-12-07T09:07:39;94801.72;;;2.74;100.00
57801;BME280;43627;42.728;23.256;2023-12-07T09:10:07;94796.75;;;2.73;100.00
57801;BME280;43627;42.728;23.256;2023-12-07T09:12:35;94797.19;;;2.71;100.00
57801;BME280;43627;42.728;23.256;2023-12-07T09:15:05;94806.66;;;2.60;100.00
57801;BME280;43627;42.728;23.256;2023-12-07T09:17:34;94807.53;;;2.53;100.00
57801;BME280;43627;42.728;23.256;2023-12-07T09:20:01;94803.41;;;2.48;100.00
57801;BME280;43627;42.728;23.256;2023-12-07T09:22:28;94801.50;;;2.45;100.00
57801;BME280;43627;42.728;23.256;2023-12-07T09:25:03;94807.72;;;2.42;100.00
57801;BME280;43627;42.728;23.256;2023-12-07T09:27:30;94805.34;;;2.48;100.00
57801;BME280;43627;42.728;23.256;2023-12-07T09:29:59;94800.75;;;2.45;100.00
57801;BME280;43627;42.728;23.256;2023-12-07T09:32:26;94801.06;;;2.50;100.00
57801;BME280;43627;42.728;23.256;2023-12-07T09:35:03;94809.88;;;2.51;100.00
57801;BME280;43627;42.728;23.256;2023-12-07T09:37:29;94790.97;;;2.54;100.00
57801;BME280;43627;42.728;23.256;2023-12-07T09:39:56;94809.19;;;2.47;100.00
57801;BME280;43627;42.728;23.256;2023-12-07T09:42:23;94808.63;;;2.55;100.00
57801;BME280;43627;42.728;23.256;2023-12-07T09:44:57;94809.41;;;2.56;100.00
57801;BME280;43627;42.728;23.256;2023-12-07T09:47:25;94813.06;;;2.66;100.00
57801;BME280;43627;42.728;23.256;2023-12-07T09:50:02;94814.28;;;2.41;100.00
57801;BME280;43627;42.728;23.256;2023-12-07T09:52:29;94798.91;;;2.42;100.00
57801;BME280;43627;42.728;23.256;2023-12-07T09:54:55;94813.47;;;2.44;100.00
57801;BME280;43627;42.728;23.256;2023-12-07T09:57:24;94813.19;;;2.39;100.00
57801;BME280;43627;42.728;23.256;2023-12-07T09:59:55;94809.59;;;2.45;100.00
57801;BME280;43627;42.728;23.256;2023-12-07T10:02:22;94809.38;;;2.36;100.00
57801;BME280;43627;42.728;23.256;2023-12-07T10:05:02;94803.44;;;2.25;100.00
57801;BME280;43627;42.728;23.256;2023-12-07T10:07:34;94809.09;;;2.31;100.00
57801;BME280;43627;42.728;23.256;2023-12-07T10:10:03;94825.84;;;2.18;100.00
57801;BME280;43627;42.728;23.256;2023-12-07T10:12:30;94821.63;;;2.17;100.00
57801;BME280;43627;42.728;23.256;2023-12-07T10:14:57;94809.09;;;2.07;100.00
57801;BME280;43627;42.728;23.256;2023-12-07T10:17:24;94816.31;;;2.14;100.00
57801;BME280;43627;42.728;23.256;2023-12-07T10:20:07;94804.56;;;2.04;100.00
57801;BME280;43627;42.728;23.256;2023-12-07T10:22:39;94813.47;;;2.01;100.00
57801;BME280;43627;42.728;23.256;2023-12-07T10:25:06;94801.63;;;1.95;100.00
57801;BME280;43627;42.728;23.256;2023-12-07T10:27:32;94806.72;;;1.89;100.00
57801;BME280;43627;42.728;23.256;2023-12-07T10:29:59;94805.97;;;1.89;100.00
57801;BME280;43627;42.728;23.256;2023-12-07T10:32:26;94810.84;;;1.70;100.00
57801;BME280;43627;42.728;23.256;2023-12-07T10:34:53;94816.88;;;1.78;100.00
57801;BME280;43627;42.728;23.256;2023-12-07T10:37:20;94804.34;;;1.71;100.00
57801;BME280;43627;42.728;23.256;2023-12-07T10:39:47;94808.53;;;1.73;100.00
57801;BME280;43627;42.728;23.256;2023-12-07T10:42:13;94805.09;;;1.72;100.00
57801;BME280;43627;42.728;23.256;2023-12-07T10:44:42;94802.69;;;1.78;100.00
57801;BME280;43627;42.728;23.256;2023-12-07T10:47:11;94796.56;;;1.77;100.00
57801;BME280;43627;42.728;23.256;2023-12-07T10:49:40;94799.50;;;1.59;100.00
57801;BME280;43627;42.728;23.256;2023-12-07T10:52:13;94804.72;;;1.70;100.00
57801;BME280;43627;42.728;23.256;2023-12-07T10:57:15;94805.38;;;1.54;100.00
57801;BME280;43627;42.728;23.256;2023-12-07T10:59:43;94805.31;;;1.58;100.00
57801;BME280;43627;42.728;23.256;2023-12-07T11:02:12;94797.31;;;1.54;100.00
57801;BME280;43627;42.728;23.256;2023-12-07T11:04:41;94817.31;;;1.50;100.00
57801;BME280;43627;42.728;23.256;2023-12-07T11:07:10;94816.06;;;1.58;100.00
57801;BME280;43627;42.728;23.256;2023-12-07T11:09:39;94816.97;;;1.48;100.00
57801;BME280;43627;42.728;23.256;2023-12-07T11:12:17;94812.00;;;1.46;100.00
57801;BME280;43627;42.728;23.256;2023-12-07T11:14:45;94807.50;;;1.39;100.00
57801;BME280;43627;42.728;23.256;2023-12-07T11:17:12;94806.88;;;1.55;100.00
57801;BME280;43627;42.728;23.256;2023-12-07T11:22:07;94807.16;;;1.61;100.00
57801;BME280;43627;42.728;23.256;2023-12-07T11:24:34;94806.06;;;1.58;100.00
57801;BME280;43627;42.728;23.256;2023-12-07T11:27:02;94806.41;;;1.60;100.00
57801;BME280;43627;42.728;23.256;2023-12-07T11:29:29;94802.31;;;1.52;100.00
57801;BME280;43627;42.728;23.256;2023-12-07T11:31:56;94809.84;;;1.61;100.00
57801;BME280;43627;42.728;23.256;2023-12-07T11:34:40;94803.56;;;1.71;100.00
57801;BME280;43627;42.728;23.256;2023-12-07T11:37:07;94807.13;;;1.88;100.00
57801;BME280;43627;42.728;23.256;2023-12-07T11:39:35;94796.50;;;1.81;100.00
57801;BME280;43627;42.728;23.256;2023-12-07T11:42:06;94803.44;;;1.78;100.00
57801;BME280;43627;42.728;23.256;2023-12-07T11:44:34;94799.44;;;1.90;100.00
57801;BME280;43627;42.728;23.256;2023-12-07T11:47:04;94797.31;;;2.01;100.00
57801;BME280;43627;42.728;23.256;2023-12-07T11:49:31;94786.56;;;2.01;100.00
57801;BME280;43627;42.728;23.256;2023-12-07T11:52:15;94794.88;;;2.10;100.00
57801;BME280;43627;42.728;23.256;2023-12-07T11:54:45;94798.00;;;2.05;100.00
57801;BME280;43627;42.728;23.256;2023-12-07T11:57:16;94790.13;;;1.94;100.00
57801;BME280;43627;42.728;23.256;2023-12-07T11:59:43;94805.03;;;1.76;100.00
57801;BME280;43627;42.728;23.256;2023-12-07T12:02:10;94798.00;;;1.58;100.00
57801;BME280;43627;42.728;23.256;2023-12-07T12:04:37;94796.28;;;1.71;100.00
57801;BME280;43627;42.728;23.256;2023-12-07T12:07:04;94799.34;;;1.70;100.00
57801;BME280;43627;42.728;23.256;2023-12-07T12:09:31;94794.72;;;1.70;100.00
57801;BME280;43627;42.728;23.256;2023-12-07T12:11:58;94795.69;;;1.84;100.00
57801;BME280;43627;42.728;23.256;2023-12-07T12:14:27;94793.66;;;1.91;100.00
57801;BME280;43627;42.728;23.256;2023-12-07T12:16:54;94799.13;;;1.84;100.00
57801;BME280;43627;42.728;23.256;2023-12-07T12:19:22;94796.22;;;1.75;100.00
57801;BME280;43627;42.728;23.256;2023-12-07T12:22:00;94792.75;;;1.75;100.00
57801;BME280;43627;42.728;23.256;2023-12-07T12:24:29;94802.75;;;1.74;100.00
57801;BME280;43627;42.728;23.256;2023-12-07T12:26:57;94802.69;;;1.78;100.00
57801;BME280;43627;42.728;23.256;2023-12-07T12:29:26;94808.03;;;1.81;100.00
57801;BME280;43627;42.728;23.256;2023-12-07T12:32:00;94795.84;;;1.73;100.00
57801;BME280;43627;42.728;23.256;2023-12-07T12:34:29;94801.66;;;1.71;100.00
57801;BME280;43627;42.728;23.256;2023-12-07T12:36:56;94805.34;;;1.81;100.00
57801;BME280;43627;42.728;23.256;2023-12-07T12:39:27;94809.13;;;1.84;100.00
57801;BME280;43627;42.728;23.256;2023-12-07T12:41:59;94810.50;;;1.68;100.00
57801;BME280;43627;42.728;23.256;2023-12-07T12:44:28;94795.22;;;1.65;100.00
57801;BME280;43627;42.728;23.256;2023-12-07T12:47:04;94798.09;;;1.51;100.00
57801;BME280;43627;42.728;23.256;2023-12-07T12:49:37;94803.78;;;1.57;100.00
57801;BME280;43627;42.728;23.256;2023-12-07T12:52:04;94810.63;;;1.61;100.00
57801;BME280;43627;42.728;23.256;2023-12-07T12:54:31;94807.81;;;1.45;100.00
57801;BME280;43627;42.728;23.256;2023-12-07T12:57:02;94819.56;;;1.55;100.00
57801;BME280;43627;42.728;23.256;2023-12-07T12:59:29;94812.66;;;1.54;100.00
57801;BME280;43627;42.728;23.256;2023-12-07T13:01:56;94817.06;;;1.40;100.00
57801;BME280;43627;42.728;23.256;2023-12-07T13:04:23;94815.75;;;1.25;100.00
57801;BME280;43627;42.728;23.256;2023-12-07T13:06:51;94817.56;;;1.32;100.00
57801;BME280;43627;42.728;23.256;2023-12-07T13:09:18;94827.69;;;1.21;100.00
57801;BME280;43627;42.728;23.256;2023-12-07T13:11:47;94829.78;;;1.09;100.00
57801;BME280;43627;42.728;23.256;2023-12-07T13:14:15;94820.19;;;1.08;100.00
57801;BME280;43627;42.728;23.256;2023-12-07T13:16:45;94834.78;;;1.07;100.00